TimeAKDT,TemperatureF,Dew PointF,Humidity,Sea Level PressureIn,VisibilityMPH,Wind Direction,Wind SpeedMPH,Gust SpeedMPH,PrecipitationIn,Events,Conditions,WindDirDegrees,DateUTC
12:53 AM,45.0,43.0,93,28.98,4.0,North,11.5,-,0.09,Rain,Rain,360,2012-10-13 08:53:00
1:01 AM,44.6,42.8,93,28.99,4.0,North,10.4,19.6,0.01,Rain,Light Rain,360,2012-10-13 09:01:00
1:09 AM,44.6,42.8,93,28.98,5.0,North,12.7,21.9,0.01,Rain,Rain,360,2012-10-13 09:09:00
1:21 AM,44.6,42.8,93,28.98,5.0,North,16.1,26.5,0.03,Rain,Light Rain,10,2012-10-13 09:21:00
1:36 AM,44.6,42.8,93,28.98,4.0,North,17.3,24.2,0.04,Rain,Light Rain,360,2012-10-13 09:36:00
1:53 AM,44.1,43.0,96,28.98,4.0,North,11.5,-,0.06,Rain,Rain,360,2012-10-13 09:53:00
2:39 AM,44.6,42.8,93,28.97,8.0,North,10.4,-,0.03,Rain,Light Rain,360,2012-10-13 10:39:00
2:53 AM,45.0,42.1,90,28.97,8.0,NNE,18.4,25.3,0.04,Rain,Light Rain,20,2012-10-13 10:53:00
3:53 AM,45.0,43.0,93,28.97,8.0,North,10.4,25.3,0.04,Rain,Light Rain,360,2012-10-13 11:53:00
4:31 AM,44.6,42.8,93,28.96,9.0,North,13.8,19.6,0.01,Rain,Light Rain,360,2012-10-13 12:31:00
4:51 AM,44.6,42.8,93,28.96,7.0,North,9.2,-,0.03,Rain,Light Rain,360,2012-10-13 12:51:00
4:53 AM,44.1,43.0,96,28.96,6.0,North,8.1,17.3,0.03,Rain,Rain,360,2012-10-13 12:53:00
5:07 AM,44.6,44.6,100,28.96,4.0,North,5.8,-,0.01,Rain,Rain,360,2012-10-13 13:07:00
5:14 AM,44.6,44.6,100,28.96,5.0,NNE,12.7,19.6,0.03,Rain,Light Rain,20,2012-10-13 13:14:00
5:18 AM,44.6,44.6,100,28.96,5.0,Variable,5.8,19.6,0.03,Rain,Light Rain,0,2012-10-13 13:18:00
5:53 AM,45.0,43.0,93,28.96,4.0,North,12.7,21.9,0.07,Rain,Light Rain,10,2012-10-13 13:53:00
6:51 AM,44.6,42.8,93,28.96,9.0,North,13.8,-,0.06,Rain,Light Rain,10,2012-10-13 14:51:00
6:53 AM,45.0,43.0,93,28.96,9.0,North,12.7,20.7,0.06,Rain,Light Rain,10,2012-10-13 14:53:00
7:13 AM,44.6,42.8,93,28.97,7.0,NNE,10.4,23.0,0.01,Rain,Light Rain,20,2012-10-13 15:13:00
7:53 AM,45.0,43.0,93,28.98,10.0,NNE,11.5,-,0.03,Rain,Light Rain,30,2012-10-13 15:53:00
8:53 AM,45.0,41.0,86,28.98,10.0,NNE,13.8,19.6,0.00,Rain,Light Rain,30,2012-10-13 16:53:00
9:53 AM,45.0,43.0,93,28.98,6.0,NE,15.0,-,0.03,Rain,Light Rain,40,2012-10-13 17:53:00
10:53 AM,44.1,42.1,93,28.99,6.0,North,5.8,18.4,0.03,Rain,Light Rain,10,2012-10-13 18:53:00
11:49 AM,44.6,42.8,93,29.00,3.0,NNE,16.1,23.0,0.03,Rain,Light Rain,20,2012-10-13 19:49:00
11:53 AM,44.1,42.1,93,29.00,3.0,North,11.5,23.0,0.03,Rain,Light Rain,10,2012-10-13 19:53:00
12:53 PM,44.1,43.0,96,29.00,3.0,NNW,8.1,-,0.05,Rain,Light Rain,340,2012-10-13 20:53:00
1:53 PM,44.1,42.1,93,29.00,3.0,North,9.2,18.4,0.05,Rain,Light Rain,10,2012-10-13 21:53:00
2:53 PM,44.1,42.1,93,28.99,2.0,North,13.8,21.9,0.08,Rain,Light Rain,360,2012-10-13 22:53:00
3:53 PM,44.1,42.1,93,28.99,2.0,North,11.5,21.9,0.10,Rain,Light Rain,350,2012-10-13 23:53:00
3:59 PM,44.6,42.8,93,28.99,3.0,North,10.4,21.9,0.00,Rain,Light Rain,360,2012-10-13 23:59:00
4:15 PM,44.6,42.8,93,28.99,2.0,North,10.4,18.4,0.05,Rain,Light Rain,350,2012-10-14 00:15:00
4:53 PM,44.1,43.0,96,28.99,2.0,North,8.1,17.3,0.12,Rain,Light Rain,350,2012-10-14 00:53:00
5:53 PM,44.1,43.0,96,28.98,2.0,North,10.4,18.4,0.09,Rain,Light Rain,350,2012-10-14 01:53:00
6:29 PM,44.6,44.6,100,28.97,5.0,North,11.5,20.7,0.02,Rain,Light Rain,360,2012-10-14 02:29:00
6:53 PM,45.0,44.1,97,28.98,6.0,North,12.7,20.7,0.02,Rain,Light Rain,10,2012-10-14 02:53:00
7:38 PM,46.4,44.6,93,28.97,2.0,North,8.1,18.4,0.00,Rain,Light Rain,10,2012-10-14 03:38:00
7:53 PM,46.0,45.0,96,28.96,2.0,North,8.1,-,0.01,Rain,Light Rain,350,2012-10-14 03:53:00
8:53 PM,46.0,46.0,100,28.95,3.0,North,8.1,-,0.06,Rain,Light Rain,350,2012-10-14 04:53:00
9:14 PM,46.4,46.4,100,28.94,5.0,North,8.1,-,0.02,Rain,Rain,350,2012-10-14 05:14:00
9:53 PM,46.9,46.0,97,28.94,10.0,NNE,11.5,-,0.06,Rain,Light Rain,20,2012-10-14 05:53:00
10:51 PM,46.4,46.4,100,28.93,5.0,NNE,9.2,-,0.03,Rain,Light Rain,20,2012-10-14 06:51:00
10:53 PM,46.9,46.9,100,28.93,5.0,North,9.2,-,0.03,Rain,Light Rain,10,2012-10-14 06:53:00
11:22 PM,46.4,46.4,100,28.92,5.0,NNE,10.4,-,0.02,Rain,Light Rain,20,2012-10-14 07:22:00
11:53 PM,46.9,46.9,100,28.91,6.0,North,5.8,-,0.04,Rain,Light Rain,350,2012-10-14 07:53:00